createdAt,value
2019-05-05T00:00:48.065Z,4.00
2019-05-05T00:01:48.072Z,4.00
2019-05-05T00:02:48.041Z,4.00
2019-05-05T00:03:48.048Z,0.00
2019-05-05T00:04:48.017Z,0.00
2019-05-05T00:05:48.027Z,0.00
2019-05-05T00:06:47.989Z,0.00
2019-05-05T00:07:48.014Z,0.00
2019-05-05T00:08:47.968Z,0.00
2019-05-05T00:09:47.997Z,0.00
2019-05-05T00:10:47.978Z,0.00
2019-05-05T00:11:47.946Z,0.00
2019-05-05T00:12:47.941Z,0.00
2019-05-05T00:13:47.920Z,0.00
2019-05-05T00:14:47.940Z,0.00
2019-05-05T00:15:47.890Z,0.00
2019-05-05T00:16:47.886Z,0.00
2019-05-05T00:17:47.886Z,0.00
2019-05-05T00:18:47.860Z,0.00
2019-05-05T00:19:47.938Z,0.00
2019-05-05T00:20:47.862Z,0.00
2019-05-05T00:21:47.831Z,0.00
2019-05-05T00:22:47.817Z,0.00
2019-05-05T00:23:47.835Z,0.00
2019-05-05T00:24:47.836Z,0.00
2019-05-05T00:25:47.825Z,0.00
2019-05-05T00:26:47.809Z,0.00
2019-05-05T00:27:47.767Z,0.00
2019-05-05T00:28:47.759Z,0.00
2019-05-05T00:29:47.756Z,0.00
2019-05-05T00:30:47.733Z,0.00
2019-05-05T00:31:47.750Z,0.00
2019-05-05T00:32:47.740Z,0.00
2019-05-05T00:33:47.717Z,0.00
2019-05-05T00:34:47.693Z,0.00
2019-05-05T00:35:47.681Z,0.00
2019-05-05T00:36:47.669Z,0.00
2019-05-05T00:37:47.687Z,0.00
2019-05-05T00:38:47.648Z,0.00
2019-05-05T00:39:47.645Z,0.00
2019-05-05T00:40:47.627Z,0.00
2019-05-05T00:41:47.612Z,0.00
2019-05-05T00:42:47.607Z,0.00
2019-05-05T00:43:47.640Z,0.00
2019-05-05T00:44:47.577Z,0.00
2019-05-05T00:45:47.587Z,0.00
2019-05-05T00:46:47.559Z,0.00
2019-05-05T00:47:47.553Z,0.00
2019-05-05T00:48:47.555Z,0.00
2019-05-05T00:49:49.398Z,0.00
2019-05-05T00:50:47.516Z,0.00
2019-05-05T00:51:47.522Z,0.00
2019-05-05T00:52:47.492Z,0.00
2019-05-05T00:53:47.505Z,0.00
2019-05-05T00:54:47.495Z,0.00
2019-05-05T00:55:47.490Z,0.00
2019-05-05T00:56:47.455Z,0.00
2019-05-05T00:57:47.441Z,0.00
2019-05-05T00:58:47.431Z,0.00
2019-05-05T00:59:47.423Z,0.00
2019-05-05T01:00:47.416Z,0.00
2019-05-05T01:01:47.472Z,0.00
2019-05-05T01:02:47.410Z,0.00
2019-05-05T01:03:47.383Z,0.00
2019-05-05T01:04:47.377Z,0.00
2019-05-05T01:05:47.373Z,0.00
2019-05-05T01:06:47.381Z,0.00
2019-05-05T01:07:47.370Z,0.00
2019-05-05T01:08:47.329Z,0.00
2019-05-05T01:09:47.328Z,0.00
2019-05-05T01:10:47.302Z,0.00
2019-05-05T01:11:47.317Z,0.00
2019-05-05T01:12:47.286Z,0.00
2019-05-05T01:13:47.338Z,0.00
2019-05-05T01:14:47.266Z,0.00
2019-05-05T01:15:47.248Z,0.00
2019-05-05T01:16:47.245Z,0.00
2019-05-05T01:17:47.236Z,0.00
2019-05-05T01:18:47.222Z,0.00
2019-05-05T01:20:00.277Z,0.00
2019-05-05T01:20:48.194Z,0.00
2019-05-05T01:21:47.193Z,0.00
2019-05-05T01:22:47.185Z,0.00
2019-05-05T01:23:47.170Z,0.00
2019-05-05T01:24:47.160Z,0.00
2019-05-05T01:25:48.696Z,0.00
2019-05-05T01:26:47.134Z,0.00
2019-05-05T01:27:47.122Z,0.00
2019-05-05T01:28:47.119Z,0.00
2019-05-05T01:29:47.104Z,0.00
2019-05-05T01:30:47.100Z,0.00
2019-05-05T01:31:47.361Z,0.00
2019-05-05T01:32:47.068Z,0.00
2019-05-05T01:33:47.061Z,0.00
2019-05-05T01:34:47.046Z,0.00
2019-05-05T01:35:47.043Z,0.00
2019-05-05T01:36:47.053Z,0.00
2019-05-05T01:37:47.031Z,0.00
2019-05-05T01:38:47.008Z,0.00
2019-05-05T01:39:47.004Z,0.00
2019-05-05T01:40:46.989Z,0.00
2019-05-05T01:41:46.983Z,0.00
2019-05-05T01:42:46.997Z,0.00
2019-05-05T01:43:46.956Z,0.00
2019-05-05T01:44:46.945Z,0.00
2019-05-05T01:45:46.938Z,0.00
2019-05-05T01:46:46.935Z,0.00
2019-05-05T01:47:46.918Z,0.00
2019-05-05T01:48:46.964Z,0.00
2019-05-05T01:49:46.894Z,0.00
2019-05-05T01:50:46.883Z,0.00
2019-05-05T01:51:46.875Z,0.00
2019-05-05T01:52:46.867Z,0.00
2019-05-05T01:53:46.871Z,0.00
2019-05-05T01:54:47.363Z,0.00
2019-05-05T01:55:46.835Z,0.00
2019-05-05T01:56:46.829Z,0.00
2019-05-05T01:57:46.804Z,0.00
2019-05-05T01:58:46.803Z,0.00
2019-05-05T01:59:46.798Z,0.00
2019-05-05T02:00:46.793Z,0.00
2019-05-05T02:01:46.772Z,0.00
2019-05-05T02:02:46.755Z,0.00
2019-05-05T02:03:46.745Z,0.00
2019-05-05T02:04:46.731Z,0.00
2019-05-05T02:05:46.752Z,0.00
2019-05-05T02:06:46.715Z,0.00
2019-05-05T02:07:46.699Z,0.00
2019-05-05T02:08:46.693Z,0.00
2019-05-05T02:09:46.686Z,0.00
2019-05-05T02:10:46.683Z,0.00
2019-05-05T02:11:46.687Z,0.00
2019-05-05T02:12:46.670Z,0.00
2019-05-05T02:13:46.651Z,0.00
2019-05-05T02:14:46.638Z,0.00
2019-05-05T02:15:46.624Z,0.00
2019-05-05T02:16:46.615Z,0.00
2019-05-05T02:17:46.623Z,0.00
2019-05-05T02:18:46.589Z,0.00
2019-05-05T02:19:46.576Z,0.00
2019-05-05T02:20:46.568Z,0.00
2019-05-05T02:21:46.598Z,0.00
2019-05-05T02:22:46.555Z,0.00
2019-05-05T02:23:46.565Z,0.00
2019-05-05T02:24:46.527Z,0.00
2019-05-05T02:25:46.516Z,0.00
2019-05-05T02:26:46.500Z,0.00
2019-05-05T02:27:46.497Z,0.00
2019-05-05T02:28:46.483Z,0.00
2019-05-05T02:29:46.501Z,0.00
2019-05-05T02:30:46.683Z,0.00
2019-05-05T02:31:46.451Z,0.00
2019-05-05T02:32:46.437Z,0.00
2019-05-05T02:33:46.430Z,0.00
2019-05-05T02:34:46.429Z,0.00
2019-05-05T02:35:46.447Z,0.00
2019-05-05T02:36:46.398Z,0.00
2019-05-05T02:37:46.412Z,0.00
2019-05-05T02:38:46.611Z,0.00
2019-05-05T02:39:58.167Z,0.00
2019-05-05T02:40:47.393Z,0.00
2019-05-05T02:41:46.358Z,0.00
2019-05-05T02:42:46.337Z,0.00
2019-05-05T02:43:46.331Z,0.00
2019-05-05T02:44:46.316Z,0.00
2019-05-05T02:45:46.300Z,0.00
2019-05-05T02:46:46.326Z,0.00
2019-05-05T02:47:46.283Z,0.00
2019-05-05T02:48:46.272Z,0.00
2019-05-05T02:49:46.258Z,0.00
2019-05-05T02:50:54.946Z,0.00
2019-05-05T02:51:47.261Z,0.00
2019-05-05T02:52:46.217Z,0.00
2019-05-05T02:53:46.213Z,0.00
2019-05-05T02:54:46.207Z,0.00
2019-05-05T02:55:46.209Z,0.00
2019-05-05T02:56:46.183Z,0.00
2019-05-05T02:57:46.199Z,0.00
2019-05-05T02:58:46.168Z,0.00
2019-05-05T02:59:46.152Z,0.00
2019-05-05T03:00:46.145Z,0.00
2019-05-05T03:01:46.138Z,0.00
2019-05-05T03:02:46.123Z,0.00
2019-05-05T03:03:46.133Z,0.00
2019-05-05T03:04:46.096Z,0.00
2019-05-05T03:05:46.088Z,0.00
2019-05-05T03:06:46.082Z,0.00
2019-05-05T03:07:46.078Z,0.00
2019-05-05T03:08:46.056Z,4.00
2019-05-05T03:09:46.343Z,4.00
2019-05-05T03:10:46.038Z,4.00
2019-05-05T03:11:46.036Z,0.00
2019-05-05T03:12:46.011Z,4.00
2019-05-05T03:13:45.991Z,4.00
2019-05-05T03:14:46.025Z,8.00
2019-05-05T03:15:45.971Z,4.00
2019-05-05T03:16:45.961Z,8.00
2019-05-05T03:17:45.957Z,4.00
2019-05-05T03:18:45.941Z,8.00
2019-05-05T03:19:45.940Z,8.00
2019-05-05T03:20:45.953Z,12.00
2019-05-05T03:21:45.931Z,12.00
2019-05-05T03:22:45.898Z,12.00
2019-05-05T03:23:45.893Z,16.00
2019-05-05T03:24:45.879Z,16.00
2019-05-05T03:25:45.875Z,20.00
2019-05-05T03:26:45.886Z,20.00
2019-05-05T03:27:45.846Z,24.00
2019-05-05T03:28:45.839Z,24.00
2019-05-05T03:29:45.851Z,28.00
2019-05-05T03:30:45.827Z,32.00
2019-05-05T03:31:46.167Z,32.00
2019-05-05T03:32:45.899Z,40.00
2019-05-05T03:33:46.262Z,40.00
2019-05-05T03:34:45.776Z,44.00
2019-05-05T03:35:45.773Z,48.00
2019-05-05T03:36:45.754Z,56.00
2019-05-05T03:37:45.782Z,60.00
2019-05-05T03:38:45.734Z,64.00
2019-05-05T03:39:45.719Z,72.00
2019-05-05T03:40:45.716Z,76.00
2019-05-05T03:41:45.701Z,84.00
2019-05-05T03:42:45.721Z,88.00
2019-05-05T03:43:45.711Z,96.00
2019-05-05T03:44:45.672Z,100.00
2019-05-05T03:45:45.657Z,108.00
2019-05-05T03:46:45.657Z,120.00
2019-05-05T03:47:45.654Z,124.00
2019-05-05T03:48:45.620Z,132.00
2019-05-05T03:49:45.647Z,144.00
2019-05-05T03:50:45.605Z,152.00
2019-05-05T03:51:45.590Z,160.00
2019-05-05T03:52:45.592Z,168.00
2019-05-05T03:53:45.580Z,176.00
2019-05-05T03:54:45.557Z,188.00
2019-05-05T03:55:45.581Z,196.00
2019-05-05T03:56:45.539Z,204.00
2019-05-05T03:57:45.530Z,216.00
2019-05-05T03:58:45.524Z,224.00
2019-05-05T03:59:45.524Z,236.00
2019-05-05T04:00:45.492Z,248.00
2019-05-05T04:01:45.504Z,256.00
2019-05-05T04:02:45.478Z,268.00
2019-05-05T04:03:45.463Z,276.00
2019-05-05T04:04:45.454Z,288.00
2019-05-05T04:05:45.453Z,296.00
2019-05-05T04:06:45.431Z,312.00
2019-05-05T04:07:45.454Z,320.00
2019-05-05T04:08:45.414Z,332.00
2019-05-05T04:09:45.397Z,340.00
2019-05-05T04:10:45.394Z,356.00
2019-05-05T04:11:45.383Z,364.00
2019-05-05T04:12:45.379Z,372.00
2019-05-05T04:13:45.386Z,384.00
2019-05-05T04:14:45.344Z,396.00
2019-05-05T04:15:45.332Z,404.00
2019-05-05T04:16:45.324Z,416.00
2019-05-05T04:17:45.327Z,424.00
2019-05-05T04:18:45.301Z,436.00
2019-05-05T04:19:45.311Z,444.00
2019-05-05T04:20:45.289Z,452.00
2019-05-05T04:21:45.284Z,464.00
2019-05-05T04:22:45.266Z,472.00
2019-05-05T04:23:45.298Z,484.00
2019-05-05T04:24:45.275Z,492.00
2019-05-05T04:25:45.251Z,500.00
2019-05-05T04:26:45.233Z,512.00
2019-05-05T04:27:45.253Z,520.00
2019-05-05T04:28:45.195Z,532.00
2019-05-05T04:29:45.200Z,540.00
2019-05-05T04:30:45.204Z,548.00
2019-05-05T04:31:45.211Z,556.00
2019-05-05T04:32:45.157Z,564.00
2019-05-05T04:33:45.163Z,572.00
2019-05-05T04:34:45.136Z,580.00
2019-05-05T04:35:45.125Z,588.00
2019-05-05T04:36:45.143Z,596.00
2019-05-05T04:37:45.112Z,604.00
2019-05-05T04:38:45.091Z,612.00
2019-05-05T04:39:45.085Z,620.00
2019-05-05T04:40:45.067Z,628.00
2019-05-05T04:41:45.063Z,636.00
2019-05-05T04:42:45.075Z,644.00
2019-05-05T04:43:45.052Z,652.00
2019-05-05T04:44:45.141Z,660.00
2019-05-05T04:45:45.034Z,664.00
2019-05-05T04:46:45.003Z,668.00
2019-05-05T04:47:45.002Z,680.00
2019-05-05T04:48:45.009Z,684.00
2019-05-05T04:49:44.991Z,692.00
2019-05-05T04:50:44.974Z,700.00
2019-05-05T04:51:50.080Z,704.00
2019-05-05T04:52:45.963Z,708.00
2019-05-05T04:53:44.944Z,716.00
2019-05-05T04:54:44.958Z,724.00
2019-05-05T04:55:44.958Z,732.00
2019-05-05T04:56:44.928Z,736.00
2019-05-05T04:57:44.964Z,740.00
2019-05-05T04:58:44.886Z,744.00
2019-05-05T04:59:44.889Z,752.00
2019-05-05T05:00:44.880Z,760.00
2019-05-05T05:01:44.860Z,768.00
2019-05-05T05:02:44.847Z,768.00
2019-05-05T05:03:44.829Z,776.00
2019-05-05T05:04:44.819Z,784.00
2019-05-05T05:05:44.805Z,784.00
2019-05-05T05:06:44.825Z,788.00
2019-05-05T05:07:44.800Z,796.00
2019-05-05T05:08:44.776Z,804.00
2019-05-05T05:09:44.769Z,804.00
2019-05-05T05:10:44.750Z,812.00
2019-05-05T05:11:44.809Z,816.00
2019-05-05T05:12:44.768Z,824.00
2019-05-05T05:13:44.848Z,824.00
2019-05-05T05:14:44.710Z,832.00
2019-05-05T05:15:44.811Z,840.00
2019-05-05T05:16:44.794Z,840.00
2019-05-05T05:17:44.705Z,844.00
2019-05-05T05:18:44.798Z,852.00
2019-05-05T05:19:44.668Z,852.00
2019-05-05T05:20:44.654Z,860.00
2019-05-05T05:21:57.648Z,864.00
2019-05-05T05:22:45.674Z,864.00
2019-05-05T05:23:44.672Z,868.00
2019-05-05T05:24:44.785Z,872.00
2019-05-05T05:25:44.610Z,876.00
2019-05-05T05:26:44.583Z,884.00
2019-05-05T05:27:44.572Z,884.00
2019-05-05T05:28:44.899Z,888.00
2019-05-05T05:29:44.559Z,896.00
2019-05-05T05:30:44.545Z,896.00
2019-05-05T05:31:44.558Z,900.00
2019-05-05T05:32:44.717Z,900.00
2019-05-05T05:33:44.532Z,904.00
2019-05-05T05:34:44.492Z,908.00
2019-05-05T05:35:44.492Z,912.00
2019-05-05T05:36:44.521Z,912.00
2019-05-05T05:37:44.879Z,920.00
2019-05-05T05:38:44.452Z,920.00
2019-05-05T05:39:44.496Z,928.00
2019-05-05T05:40:44.557Z,932.00
2019-05-05T05:41:44.444Z,936.00
2019-05-05T05:42:44.414Z,936.00
2019-05-05T05:43:44.425Z,940.00
2019-05-05T05:44:44.524Z,944.00
2019-05-05T05:45:44.403Z,944.00
2019-05-05T05:46:44.372Z,944.00
2019-05-05T05:47:44.364Z,948.00
2019-05-05T05:48:44.355Z,952.00
2019-05-05T05:49:44.335Z,956.00
2019-05-05T05:50:44.420Z,960.00
2019-05-05T05:51:44.752Z,960.00
2019-05-05T05:52:44.308Z,964.00
2019-05-05T05:53:44.315Z,964.00
2019-05-05T05:54:44.361Z,968.00
2019-05-05T05:55:44.870Z,972.00
2019-05-05T05:56:44.747Z,976.00
2019-05-05T05:57:44.286Z,976.00
2019-05-05T05:58:44.274Z,984.00
2019-05-05T05:59:44.507Z,984.00
2019-05-05T06:00:44.413Z,984.00
2019-05-05T06:01:44.220Z,988.00
2019-05-05T06:02:44.235Z,992.00
2019-05-05T06:03:44.441Z,992.00
2019-05-05T06:04:44.605Z,996.00
2019-05-05T06:05:44.201Z,996.00
2019-05-05T06:06:44.198Z,1000.00
2019-05-05T06:07:44.388Z,1000.00
2019-05-05T06:08:44.208Z,1000.00
2019-05-05T06:09:44.136Z,1004.00
2019-05-05T06:10:44.437Z,1008.00
2019-05-05T06:11:44.113Z,1004.00
2019-05-05T06:12:45.027Z,1008.00
2019-05-05T06:13:45.990Z,1012.00
2019-05-05T06:14:44.753Z,1016.00
2019-05-05T06:15:44.503Z,1016.00
2019-05-05T06:16:44.654Z,1020.00
2019-05-05T06:17:44.062Z,1020.00
2019-05-05T06:18:44.037Z,1024.00
2019-05-05T06:19:44.572Z,1028.00
2019-05-05T06:20:44.631Z,1024.00
2019-05-05T06:21:44.106Z,1024.00
2019-05-05T06:22:44.657Z,1032.00
2019-05-05T06:23:43.972Z,1032.00
2019-05-05T06:24:44.104Z,1028.00
2019-05-05T06:25:44.751Z,1036.00
2019-05-05T06:26:44.665Z,1036.00
2019-05-05T06:27:44.595Z,1036.00
2019-05-05T06:28:44.750Z,1040.00
2019-05-05T06:29:44.046Z,1040.00
2019-05-05T06:30:44.420Z,1044.00
2019-05-05T06:31:44.784Z,1044.00
2019-05-05T06:32:45.809Z,1044.00
2019-05-05T06:33:43.963Z,1048.00
2019-05-05T06:34:44.407Z,1048.00
2019-05-05T06:35:44.450Z,1052.00
2019-05-05T06:36:44.489Z,1052.00
2019-05-05T06:37:46.608Z,1052.00
2019-05-05T06:38:43.932Z,1052.00
2019-05-05T06:39:44.090Z,1056.00
2019-05-05T06:40:44.456Z,1056.00
2019-05-05T06:41:43.786Z,1056.00
2019-05-05T06:42:43.798Z,1060.00
2019-05-05T06:43:44.209Z,1060.00
2019-05-05T06:44:44.260Z,1064.00
2019-05-05T06:45:44.357Z,1064.00
2019-05-05T06:46:44.592Z,1068.00
2019-05-05T06:47:44.534Z,1068.00
2019-05-05T06:48:43.952Z,1068.00
2019-05-05T06:49:43.942Z,1068.00
2019-05-05T06:50:43.844Z,1072.00
2019-05-05T06:51:44.094Z,1072.00
2019-05-05T06:52:45.108Z,1072.00
2019-05-05T06:53:43.722Z,1076.00
2019-05-05T06:54:43.921Z,1076.00
2019-05-05T06:55:44.412Z,1076.00
2019-05-05T06:56:44.492Z,1080.00
2019-05-05T06:57:44.437Z,1084.00
2019-05-05T06:58:44.762Z,1084.00
2019-05-05T06:59:43.997Z,1084.00
2019-05-05T07:00:44.211Z,1088.00
2019-05-05T07:01:44.277Z,1092.00
2019-05-05T07:02:44.429Z,1096.00
2019-05-05T07:03:43.960Z,1096.00
2019-05-05T07:04:44.499Z,1096.00
2019-05-05T07:05:43.959Z,1108.00
2019-05-05T07:06:53.507Z,1120.00
2019-05-05T07:07:44.488Z,1120.00
2019-05-05T07:08:43.922Z,1124.00
2019-05-05T07:09:44.288Z,1124.00
2019-05-05T07:10:44.414Z,1124.00
2019-05-05T07:11:43.794Z,1124.00
2019-05-05T07:12:44.083Z,1124.00
2019-05-05T07:13:44.287Z,1128.00
2019-05-05T07:14:44.530Z,1124.00
2019-05-05T07:15:43.891Z,1132.00
2019-05-05T07:16:43.888Z,1132.00
2019-05-05T07:17:44.225Z,1140.00
2019-05-05T07:18:44.560Z,1148.00
2019-05-05T07:19:45.074Z,1152.00
2019-05-05T07:20:44.074Z,1160.00
2019-05-05T07:21:43.698Z,1164.00
2019-05-05T07:22:57.968Z,1176.00
2019-05-05T07:23:44.714Z,1184.00
2019-05-05T07:24:43.682Z,1192.00
2019-05-05T07:25:45.878Z,1204.00
2019-05-05T07:26:44.643Z,1212.00
2019-05-05T07:27:44.275Z,1224.00
2019-05-05T07:28:44.780Z,1228.00
2019-05-05T07:29:43.804Z,1228.00
2019-05-05T07:30:44.226Z,1260.00
2019-05-05T07:31:43.762Z,1292.00
2019-05-05T07:32:44.313Z,1384.00
2019-05-05T07:33:43.794Z,1444.00
2019-05-05T07:34:43.895Z,1308.00
2019-05-05T07:35:56.035Z,1232.00
2019-05-05T07:36:44.499Z,1204.00
2019-05-05T07:37:43.743Z,1212.00
2019-05-05T07:38:44.214Z,1232.00
2019-05-05T07:39:44.646Z,1228.00
2019-05-05T07:40:43.910Z,1236.00
2019-05-05T07:41:44.694Z,1232.00
2019-05-05T07:42:44.106Z,1200.00
2019-05-05T07:43:43.770Z,1252.00
2019-05-05T07:44:44.074Z,1260.00
2019-05-05T07:45:44.598Z,1244.00
2019-05-05T07:46:43.923Z,1264.00
2019-05-05T07:47:43.698Z,1268.00
2019-05-05T07:48:44.236Z,1272.00
2019-05-05T07:49:44.126Z,1272.00
2019-05-05T07:50:45.026Z,1276.00
2019-05-05T07:51:44.375Z,1288.00
2019-05-05T07:52:43.867Z,1296.00
2019-05-05T07:53:44.201Z,1300.00
2019-05-05T07:54:43.607Z,1312.00
2019-05-05T07:55:43.676Z,1324.00
2019-05-05T07:56:44.372Z,1340.00
2019-05-05T07:57:43.505Z,1356.00
2019-05-05T07:58:43.896Z,1368.00
2019-05-05T07:59:45.008Z,1376.00
2019-05-05T08:00:43.664Z,1388.00
2019-05-05T08:01:45.856Z,1408.00
2019-05-05T08:02:43.875Z,1428.00
2019-05-05T08:03:44.555Z,1452.00
2019-05-05T08:04:43.764Z,1472.00
2019-05-05T08:05:44.228Z,1484.00
2019-05-05T08:06:44.527Z,1516.00
2019-05-05T08:07:44.648Z,1556.00
2019-05-05T08:08:44.353Z,1588.00
2019-05-05T08:09:44.509Z,1588.00
2019-05-05T08:10:43.743Z,1648.00
2019-05-05T08:11:43.548Z,1864.00
2019-05-05T08:12:43.636Z,1928.00
2019-05-05T08:13:44.306Z,2012.00
2019-05-05T08:14:44.433Z,2124.00
2019-05-05T08:15:55.985Z,2464.00
2019-05-05T08:16:44.281Z,3136.00
2019-05-05T08:17:44.650Z,4504.00
2019-05-05T08:18:43.820Z,6472.00
2019-05-05T08:19:43.885Z,7180.00
2019-05-05T08:20:44.361Z,7416.00
2019-05-05T08:21:43.749Z,7448.00
2019-05-05T08:22:44.277Z,6880.00
2019-05-05T08:23:44.657Z,6392.00
2019-05-05T08:24:43.951Z,6328.00
2019-05-05T08:25:45.209Z,6528.00
2019-05-05T08:26:44.094Z,5716.00
2019-05-05T08:27:44.661Z,5136.00
2019-05-05T08:28:43.457Z,4692.00
2019-05-05T08:29:43.817Z,3800.00
2019-05-05T08:30:44.122Z,2936.00
2019-05-05T08:31:44.265Z,2728.00
2019-05-05T08:32:43.595Z,2616.00
2019-05-05T08:33:44.180Z,2700.00
2019-05-05T08:34:55.119Z,2728.00
2019-05-05T08:35:44.856Z,2880.00
2019-05-05T08:36:44.497Z,3520.00
2019-05-05T08:37:43.622Z,4352.00
2019-05-05T08:38:44.102Z,5456.00
2019-05-05T08:39:44.618Z,6988.00
2019-05-05T08:40:43.847Z,8712.00
2019-05-05T08:41:45.292Z,9136.00
2019-05-05T08:42:44.446Z,6588.00
2019-05-05T08:43:44.039Z,3756.00
2019-05-05T08:44:44.639Z,2688.00
2019-05-05T08:45:44.366Z,2772.00
2019-05-05T08:46:44.491Z,2988.00
2019-05-05T08:47:43.579Z,2972.00
2019-05-05T08:48:44.578Z,3068.00
2019-05-05T08:49:44.264Z,3188.00
2019-05-05T08:50:43.921Z,3372.00
2019-05-05T08:51:44.250Z,3492.00
2019-05-05T08:52:44.386Z,3572.00
2019-05-05T08:53:47.367Z,3612.00
2019-05-05T08:54:44.674Z,3720.00
2019-05-05T08:55:44.283Z,3952.00
2019-05-05T08:56:44.572Z,4276.00
2019-05-05T08:57:44.519Z,4640.00
2019-05-05T08:58:43.810Z,5032.00
2019-05-05T08:59:43.936Z,5368.00
2019-05-05T09:00:44.278Z,5644.00
2019-05-05T09:01:44.703Z,5800.00
2019-05-05T09:02:43.737Z,5948.00
2019-05-05T09:03:44.304Z,6164.00
2019-05-05T09:04:44.509Z,6420.00
2019-05-05T09:05:43.703Z,6644.00
2019-05-05T09:06:43.722Z,6748.00
2019-05-05T09:07:44.137Z,6752.00
2019-05-05T09:08:44.200Z,6740.00
2019-05-05T09:09:44.211Z,6784.00
2019-05-05T09:10:42.205Z,6988.00
2019-05-05T09:11:43.794Z,7244.00
2019-05-05T09:12:43.676Z,7428.00
2019-05-05T09:13:44.460Z,7544.00
2019-05-05T09:14:42.152Z,7668.00
2019-05-05T09:15:44.113Z,7644.00
2019-05-05T09:16:42.132Z,7516.00
2019-05-05T09:17:43.977Z,7372.00
2019-05-05T09:18:44.176Z,7056.00
2019-05-05T09:19:42.102Z,6628.00
2019-05-05T09:20:44.370Z,6252.00
2019-05-05T09:21:42.104Z,5888.00
2019-05-05T09:22:42.074Z,5656.00
2019-05-05T09:23:56.571Z,5388.00
2019-05-05T09:24:44.523Z,4976.00
2019-05-05T09:25:42.039Z,4668.00
2019-05-05T09:26:43.735Z,4332.00
2019-05-05T09:27:44.153Z,4120.00
2019-05-05T09:28:42.008Z,3996.00
2019-05-05T09:29:43.990Z,3848.00
2019-05-05T09:30:44.253Z,4232.00
2019-05-05T09:31:41.997Z,4788.00
2019-05-05T09:32:43.893Z,5336.00
2019-05-05T09:33:44.105Z,5624.00
2019-05-05T09:34:43.633Z,5060.00
2019-05-05T09:35:43.717Z,4736.00
2019-05-05T09:36:43.847Z,4772.00
2019-05-05T09:37:44.175Z,5424.00
2019-05-05T09:38:41.890Z,6268.00
2019-05-05T09:39:43.722Z,6572.00
2019-05-05T09:40:43.790Z,7496.00
2019-05-05T09:41:41.857Z,7648.00
2019-05-05T09:42:41.858Z,7740.00
2019-05-05T09:43:41.840Z,6732.00
2019-05-05T09:44:43.775Z,6216.00
2019-05-05T09:45:43.954Z,6232.00
2019-05-05T09:46:41.802Z,6620.00
2019-05-05T09:47:41.800Z,6612.00
2019-05-05T09:48:43.907Z,6392.00
2019-05-05T09:49:41.781Z,5952.00
2019-05-05T09:50:43.658Z,5784.00
2019-05-05T09:51:43.833Z,5336.00
2019-05-05T09:52:41.738Z,5680.00
2019-05-05T09:53:41.730Z,6960.00
2019-05-05T09:54:43.682Z,8436.00
2019-05-05T09:55:41.721Z,8756.00
2019-05-05T09:56:41.734Z,9412.00
2019-05-05T09:57:43.646Z,8184.00
2019-05-05T09:58:43.941Z,7740.00
2019-05-05T09:59:43.905Z,7400.00
2019-05-05T10:00:41.647Z,7164.00
2019-05-05T10:01:41.644Z,6004.00
2019-05-05T10:02:43.953Z,5512.00
2019-05-05T10:03:41.673Z,5424.00
2019-05-05T10:04:41.634Z,5028.00
2019-05-05T10:05:41.602Z,4752.00
2019-05-05T10:06:41.596Z,4640.00
2019-05-05T10:07:41.571Z,4676.00
2019-05-05T10:08:41.569Z,4800.00
2019-05-05T10:09:43.616Z,4672.00
2019-05-05T10:10:41.542Z,4284.00
2019-05-05T10:11:41.537Z,4224.00
2019-05-05T10:12:41.527Z,4568.00
2019-05-05T10:13:41.511Z,4940.00
2019-05-05T10:14:41.505Z,5164.00
2019-05-05T10:15:41.510Z,4968.00
2019-05-05T10:16:41.481Z,4924.00
2019-05-05T10:17:41.464Z,5192.00
2019-05-05T10:18:41.470Z,5448.00
2019-05-05T10:19:41.446Z,5464.00
2019-05-05T10:20:41.441Z,5300.00
2019-05-05T10:21:41.484Z,4924.00
2019-05-05T10:22:41.405Z,4400.00
2019-05-05T10:23:43.511Z,4708.00
2019-05-05T10:24:41.385Z,5608.00
2019-05-05T10:25:41.378Z,6860.00
2019-05-05T10:26:41.368Z,8048.00
2019-05-05T10:27:44.889Z,9300.00
2019-05-05T10:28:44.370Z,10028.00
2019-05-05T10:29:41.344Z,9644.00
2019-05-05T10:30:41.360Z,9332.00
2019-05-05T10:31:41.305Z,8936.00
2019-05-05T10:32:41.305Z,8544.00
2019-05-05T10:33:41.306Z,8040.00
2019-05-05T10:34:41.278Z,7424.00
2019-05-05T10:35:41.284Z,6868.00
2019-05-05T10:36:41.253Z,6140.00
2019-05-05T10:37:41.240Z,5800.00
2019-05-05T10:38:41.256Z,5748.00
2019-05-05T10:39:41.261Z,5592.00
2019-05-05T10:40:41.218Z,5680.00
2019-05-05T10:41:41.203Z,5972.00
2019-05-05T10:42:41.186Z,6164.00
2019-05-05T10:43:41.181Z,6244.00
2019-05-05T10:44:41.273Z,6176.00
2019-05-05T10:45:41.194Z,6248.00
2019-05-05T10:46:41.156Z,6384.00
2019-05-05T10:47:41.147Z,6536.00
2019-05-05T10:48:41.141Z,6576.00
2019-05-05T10:49:41.112Z,6476.00
2019-05-05T10:50:41.135Z,6244.00
2019-05-05T10:51:41.108Z,5940.00
2019-05-05T10:52:41.099Z,5656.00
2019-05-05T10:53:41.103Z,5392.00
2019-05-05T10:54:44.630Z,5132.00
2019-05-05T10:55:41.229Z,5008.00
2019-05-05T10:56:41.067Z,5068.00
2019-05-05T10:57:41.049Z,5404.00
2019-05-05T10:58:41.489Z,6012.00
2019-05-05T10:59:41.006Z,6784.00
2019-05-05T11:00:41.017Z,7496.00
2019-05-05T11:01:41.011Z,8044.00
2019-05-05T11:02:41.007Z,8556.00
2019-05-05T11:03:40.969Z,9000.00
2019-05-05T11:04:40.954Z,9540.00
2019-05-05T11:05:41.013Z,10108.00
2019-05-05T11:06:41.045Z,10508.00
2019-05-05T11:07:40.946Z,10656.00
2019-05-05T11:08:40.936Z,10876.00
2019-05-05T11:09:40.913Z,11072.00
2019-05-05T11:10:40.931Z,10864.00
2019-05-05T11:11:40.879Z,10776.00
2019-05-05T11:12:40.875Z,10580.00
2019-05-05T11:13:42.788Z,10132.00
2019-05-05T11:14:40.899Z,9688.00
2019-05-05T11:15:40.838Z,9044.00
2019-05-05T11:16:40.845Z,8680.00
2019-05-05T11:17:40.824Z,8724.00
2019-05-05T11:18:40.808Z,8348.00
2019-05-05T11:19:40.789Z,8988.00
2019-05-05T11:20:40.812Z,9460.00
2019-05-05T11:21:40.769Z,9488.00
2019-05-05T11:22:40.757Z,9080.00
2019-05-05T11:23:40.745Z,8180.00
2019-05-05T11:24:54.208Z,8580.00
2019-05-05T11:25:44.034Z,8256.00
2019-05-05T11:26:40.719Z,8464.00
2019-05-05T11:27:40.758Z,9024.00
2019-05-05T11:28:40.744Z,9216.00
2019-05-05T11:29:40.695Z,9684.00
2019-05-05T11:30:40.680Z,10344.00
2019-05-05T11:31:40.693Z,11252.00
2019-05-05T11:32:40.716Z,12108.00
2019-05-05T11:33:40.648Z,12324.00
2019-05-05T11:34:40.633Z,11440.00
2019-05-05T11:35:40.619Z,10852.00
2019-05-05T11:36:40.612Z,8708.00
2019-05-05T11:37:40.641Z,8432.00
2019-05-05T11:38:41.673Z,8856.00
2019-05-05T11:39:40.579Z,8980.00
2019-05-05T11:40:40.566Z,9068.00
2019-05-05T11:41:40.554Z,8208.00
2019-05-05T11:42:40.597Z,8024.00
2019-05-05T11:43:40.550Z,8612.00
2019-05-05T11:44:40.524Z,9860.00
2019-05-05T11:45:40.508Z,9500.00
2019-05-05T11:46:40.563Z,8400.00
2019-05-05T11:47:40.507Z,8208.00
2019-05-05T11:48:40.491Z,7960.00
2019-05-05T11:49:40.463Z,7700.00
2019-05-05T11:50:40.472Z,7736.00
2019-05-05T11:51:40.514Z,8132.00
2019-05-05T11:52:40.718Z,8324.00
2019-05-05T11:53:40.684Z,7940.00
2019-05-05T11:54:40.708Z,7360.00
2019-05-05T11:55:40.475Z,6292.00
2019-05-05T11:56:40.424Z,5460.00
2019-05-05T11:57:40.387Z,4668.00
2019-05-05T11:58:40.379Z,4584.00
2019-05-05T11:59:40.536Z,4640.00
2019-05-05T12:00:40.409Z,4900.00
2019-05-05T12:01:40.404Z,5488.00
2019-05-05T12:02:40.388Z,6624.00
2019-05-05T12:03:40.417Z,8184.00
2019-05-05T12:04:40.408Z,9644.00
2019-05-05T12:05:40.415Z,9956.00
2019-05-05T12:06:40.725Z,9956.00
2019-05-05T12:07:40.536Z,10236.00
2019-05-05T12:08:42.939Z,10396.00
2019-05-05T12:09:41.308Z,10304.00
2019-05-05T12:10:40.245Z,10156.00
2019-05-05T12:11:40.453Z,9848.00
2019-05-05T12:12:40.224Z,9656.00
2019-05-05T12:13:40.205Z,9588.00
2019-05-05T12:14:40.237Z,9460.00
2019-05-05T12:15:40.214Z,9744.00
2019-05-05T12:16:40.189Z,10384.00
2019-05-05T12:17:40.226Z,10800.00
2019-05-05T12:18:40.194Z,10964.00
2019-05-05T12:19:40.152Z,10968.00
2019-05-05T12:20:40.132Z,10552.00
2019-05-05T12:21:40.121Z,10176.00
2019-05-05T12:22:40.111Z,9964.00
2019-05-05T12:23:40.167Z,10160.00
2019-05-05T12:24:40.186Z,10372.00
2019-05-05T12:25:40.101Z,10056.00
2019-05-05T12:26:40.072Z,9928.00
2019-05-05T12:27:40.066Z,10140.00
2019-05-05T12:28:40.053Z,10304.00